createdAt,value
2019-05-20T00:01:36.514Z,6.42
2019-05-20T00:03:43.128Z,6.45
2019-05-20T00:05:49.617Z,6.03
2019-05-20T00:07:56.160Z,6.30
2019-05-20T00:10:02.553Z,6.80
2019-05-20T00:12:09.097Z,7.00
2019-05-20T00:14:15.594Z,6.05
2019-05-20T00:16:22.046Z,5.78
2019-05-20T00:18:28.453Z,6.37
2019-05-20T00:20:34.919Z,6.17
2019-05-20T00:22:41.314Z,7.35
2019-05-20T00:24:47.757Z,6.50
2019-05-20T00:26:54.142Z,5.92
2019-05-20T00:29:00.604Z,7.25
2019-05-20T00:31:07.076Z,6.42
2019-05-20T00:33:13.608Z,5.17
2019-05-20T00:35:20.277Z,6.80
2019-05-20T00:37:26.821Z,6.17
2019-05-20T00:39:33.321Z,5.95
2019-05-20T00:41:39.717Z,6.33
2019-05-20T00:43:46.508Z,6.70
2019-05-20T00:45:53.009Z,6.15
2019-05-20T00:47:59.545Z,6.33
2019-05-20T00:50:08.183Z,6.90
2019-05-20T00:52:14.728Z,6.22
2019-05-20T00:54:21.317Z,6.70
2019-05-20T00:56:27.962Z,6.80
2019-05-20T00:58:34.498Z,6.22
2019-05-20T01:00:41.455Z,6.60
2019-05-20T01:02:56.488Z,6.22
2019-05-20T01:04:56.060Z,6.90
2019-05-20T01:07:02.558Z,6.58
2019-05-20T01:09:09.481Z,6.30
2019-05-20T01:11:16.019Z,7.30
2019-05-20T01:13:22.484Z,6.35
2019-05-20T01:15:29.018Z,7.12
2019-05-20T01:17:35.646Z,6.90
2019-05-20T01:19:42.089Z,6.40
2019-05-20T01:21:48.603Z,7.58
2019-05-20T01:23:55.121Z,7.37
2019-05-20T01:26:01.527Z,7.15
2019-05-20T01:28:07.997Z,6.97
2019-05-20T01:30:16.667Z,7.15
2019-05-20T01:32:23.115Z,7.20
2019-05-20T01:34:30.377Z,6.78
2019-05-20T01:36:36.909Z,8.40
2019-05-20T01:38:43.304Z,7.08
2019-05-20T01:40:49.802Z,7.58
2019-05-20T01:42:56.266Z,8.18
2019-05-20T01:45:02.730Z,9.15
2019-05-20T01:47:09.438Z,7.90
2019-05-20T01:49:15.969Z,6.22
2019-05-20T01:51:24.292Z,7.85
2019-05-20T01:53:31.467Z,7.62
2019-05-20T01:55:37.988Z,8.65
2019-05-20T01:57:44.411Z,7.70
2019-05-20T01:59:50.876Z,8.15
2019-05-20T02:01:57.305Z,6.65
2019-05-20T02:04:03.812Z,8.35
2019-05-20T02:06:10.395Z,8.20
2019-05-20T02:08:17.016Z,7.45
2019-05-20T02:10:23.696Z,7.33
2019-05-20T02:12:30.198Z,8.18
2019-05-20T02:14:41.065Z,7.42
2019-05-20T02:16:48.399Z,8.18
2019-05-20T02:18:54.868Z,7.25
2019-05-20T02:21:01.262Z,7.72
2019-05-20T02:23:14.829Z,8.13
2019-05-20T02:25:22.417Z,7.45
2019-05-20T02:27:28.948Z,7.95
2019-05-20T02:29:35.336Z,7.80
2019-05-20T02:31:41.963Z,8.30
2019-05-20T02:33:52.129Z,8.03
2019-05-20T02:35:56.527Z,8.20
2019-05-20T02:38:03.485Z,8.38
2019-05-20T02:40:10.678Z,7.35
2019-05-20T02:42:17.145Z,7.65
2019-05-20T02:44:23.654Z,7.70
2019-05-20T02:46:30.416Z,8.15
2019-05-20T02:48:36.953Z,8.43
2019-05-20T02:50:43.526Z,8.00
2019-05-20T02:52:49.986Z,6.67
2019-05-20T02:54:56.543Z,8.10
2019-05-20T02:57:02.978Z,7.95
2019-05-20T02:59:09.514Z,8.68
2019-05-20T03:01:16.001Z,8.38
2019-05-20T03:03:22.605Z,8.20
2019-05-20T03:05:29.140Z,9.28
2019-05-20T03:07:35.552Z,8.33
2019-05-20T03:09:41.966Z,7.45
2019-05-20T03:11:48.355Z,7.85
2019-05-20T03:13:54.740Z,8.45
2019-05-20T03:16:01.281Z,8.10
2019-05-20T03:18:08.667Z,8.23
2019-05-20T03:20:15.828Z,7.40
2019-05-20T03:22:22.347Z,7.42
2019-05-20T03:24:28.832Z,7.95
2019-05-20T03:26:35.466Z,7.90
2019-05-20T03:28:42.065Z,7.47
2019-05-20T03:30:48.625Z,7.20
2019-05-20T03:32:55.092Z,7.95
2019-05-20T03:35:02.249Z,7.70
2019-05-20T03:37:08.978Z,7.22
2019-05-20T03:39:15.376Z,7.62
2019-05-20T03:41:21.894Z,8.05
2019-05-20T03:43:28.435Z,7.40
2019-05-20T03:45:35.040Z,7.42
2019-05-20T03:47:43.330Z,7.58
2019-05-20T03:49:49.856Z,7.67
2019-05-20T03:51:56.306Z,7.70
2019-05-20T03:54:02.856Z,7.08
2019-05-20T03:56:09.361Z,7.65
2019-05-20T03:58:15.765Z,7.10
2019-05-20T04:00:44.666Z,7.15
2019-05-20T04:02:51.055Z,6.47
2019-05-20T04:05:02.766Z,6.60
2019-05-20T04:07:07.331Z,6.33
2019-05-20T04:09:13.937Z,6.70
2019-05-20T04:11:20.390Z,6.92
2019-05-20T04:13:26.913Z,6.08
2019-05-20T04:15:33.561Z,6.42
2019-05-20T04:17:39.990Z,6.00
2019-05-20T04:19:46.466Z,6.30
2019-05-20T04:21:53.020Z,6.20
2019-05-20T04:24:01.425Z,6.35
2019-05-20T04:26:07.845Z,6.00
2019-05-20T04:28:14.365Z,6.17
2019-05-20T04:30:21.149Z,6.15
2019-05-20T04:32:27.690Z,5.47
2019-05-20T04:34:37.663Z,6.47
2019-05-20T04:36:44.060Z,5.47
2019-05-20T04:38:50.485Z,5.55
2019-05-20T04:40:56.991Z,6.28
2019-05-20T04:43:03.449Z,5.75
2019-05-20T04:45:10.782Z,5.50
2019-05-20T04:47:17.323Z,5.37
2019-05-20T04:49:23.781Z,5.60
2019-05-20T04:51:30.273Z,6.03
2019-05-20T04:53:36.691Z,5.40
2019-05-20T04:55:43.301Z,5.65
2019-05-20T04:57:49.712Z,5.55
2019-05-20T04:59:57.426Z,5.72
2019-05-20T05:02:03.817Z,5.53
2019-05-20T05:04:10.287Z,5.28
2019-05-20T05:06:16.941Z,5.28
2019-05-20T05:08:23.889Z,5.85
2019-05-20T05:10:30.371Z,5.30
2019-05-20T05:12:38.158Z,5.77
2019-05-20T05:14:44.752Z,4.95
2019-05-20T05:16:51.418Z,5.45
2019-05-20T05:18:57.891Z,5.03
2019-05-20T05:21:04.489Z,5.35
2019-05-20T05:23:11.409Z,5.20
2019-05-20T05:25:17.952Z,5.30
2019-05-20T05:27:24.478Z,5.60
2019-05-20T05:29:31.082Z,5.10
2019-05-20T05:31:38.118Z,5.35
2019-05-20T05:33:44.657Z,5.30
2019-05-20T05:35:53.726Z,5.92
2019-05-20T05:38:00.614Z,5.20
2019-05-20T05:40:08.654Z,5.83
2019-05-20T05:42:15.095Z,5.17
2019-05-20T05:44:21.656Z,5.22
2019-05-20T05:46:28.057Z,5.97
2019-05-20T05:48:34.442Z,5.58
2019-05-20T05:50:41.025Z,5.30
2019-05-20T05:52:47.420Z,6.62
2019-05-20T05:54:53.919Z,5.92
2019-05-20T05:57:00.401Z,5.67
2019-05-20T05:59:06.789Z,6.75
2019-05-20T06:01:13.241Z,5.85
2019-05-20T06:03:19.794Z,5.10
2019-05-20T06:05:26.361Z,5.15
2019-05-20T06:07:32.754Z,4.97
2019-05-20T06:09:39.137Z,4.90
2019-05-20T06:11:45.733Z,7.50
2019-05-20T06:13:52.326Z,4.90
2019-05-20T06:15:58.714Z,4.87
2019-05-20T06:18:05.319Z,4.85
2019-05-20T06:20:12.617Z,4.62
2019-05-20T06:22:19.150Z,5.20
2019-05-20T06:24:25.618Z,4.50
2019-05-20T06:26:32.171Z,4.95
2019-05-20T06:28:38.561Z,4.65
2019-05-20T06:30:46.433Z,4.58
2019-05-20T06:32:52.901Z,4.45
2019-05-20T06:35:00.227Z,4.67
2019-05-20T06:37:12.386Z,4.60
2019-05-20T06:39:19.375Z,4.80
2019-05-20T06:41:25.925Z,4.97
2019-05-20T06:43:32.534Z,4.78
2019-05-20T06:45:39.000Z,4.87
2019-05-20T06:47:45.499Z,4.97
2019-05-20T06:49:51.971Z,4.47
2019-05-20T06:51:58.368Z,4.25
2019-05-20T06:54:06.179Z,3.90
2019-05-20T06:56:12.594Z,4.55
2019-05-20T06:58:19.146Z,4.60
2019-05-20T07:00:39.944Z,4.35
2019-05-20T07:02:46.527Z,4.97
2019-05-20T07:04:52.990Z,4.12
2019-05-20T07:06:59.524Z,4.50
2019-05-20T07:09:07.725Z,4.50
2019-05-20T07:11:14.312Z,4.67
2019-05-20T07:13:21.830Z,4.10
2019-05-20T07:15:28.373Z,4.30
2019-05-20T07:17:34.893Z,4.62
2019-05-20T07:19:41.727Z,4.37
2019-05-20T07:21:48.239Z,4.17
2019-05-20T07:23:54.766Z,4.28
2019-05-20T07:26:01.236Z,4.60
2019-05-20T07:28:07.811Z,4.37
2019-05-20T07:30:15.890Z,4.10
2019-05-20T07:32:22.333Z,4.15
2019-05-20T07:34:28.802Z,4.80
2019-05-20T07:36:35.320Z,9.03
2019-05-20T07:38:41.825Z,4.12
2019-05-20T07:40:48.291Z,4.60
2019-05-20T07:42:54.729Z,4.72
2019-05-20T07:45:01.238Z,5.03
2019-05-20T07:47:10.900Z,4.00
2019-05-20T07:49:17.708Z,4.12
2019-05-20T07:51:25.285Z,3.90
2019-05-20T07:53:33.764Z,4.05
2019-05-20T07:55:59.655Z,4.20
2019-05-20T07:58:10.289Z,5.47
2019-05-20T08:00:17.145Z,3.72
2019-05-20T08:02:24.505Z,4.25
2019-05-20T08:04:31.089Z,4.27
2019-05-20T08:06:37.749Z,4.55
2019-05-20T08:08:44.393Z,7.05
2019-05-20T08:10:51.052Z,5.20
2019-05-20T08:12:57.661Z,3.75
2019-05-20T08:15:07.128Z,4.00
2019-05-20T08:17:13.709Z,4.00
2019-05-20T08:19:20.249Z,3.77
2019-05-20T08:21:26.830Z,4.30
2019-05-20T08:23:33.429Z,3.95
2019-05-20T08:25:39.905Z,3.98
2019-05-20T08:27:46.425Z,4.15
2019-05-20T08:29:52.973Z,4.20
2019-05-20T08:31:59.513Z,4.83
2019-05-20T08:34:06.117Z,4.35
2019-05-20T08:36:12.568Z,3.90
2019-05-20T08:38:19.097Z,4.10
2019-05-20T08:40:25.648Z,4.47
2019-05-20T08:42:32.048Z,4.80
2019-05-20T08:44:38.548Z,4.33
2019-05-20T08:46:45.008Z,4.65
2019-05-20T08:48:51.487Z,4.60
2019-05-20T08:50:58.114Z,4.75
2019-05-20T08:53:04.707Z,4.72
2019-05-20T08:55:11.385Z,4.42
2019-05-20T08:57:18.170Z,4.65
2019-05-20T08:59:25.844Z,4.77
2019-05-20T09:01:32.286Z,4.67
2019-05-20T09:03:38.686Z,4.92
2019-05-20T09:05:45.136Z,5.20
2019-05-20T09:08:02.151Z,5.00
2019-05-20T09:09:59.842Z,4.80
2019-05-20T09:12:07.088Z,4.90
2019-05-20T09:14:13.629Z,4.60
2019-05-20T09:16:20.196Z,5.10
2019-05-20T09:18:26.605Z,4.53
2019-05-20T09:20:33.207Z,4.40
2019-05-20T09:22:39.843Z,5.33
2019-05-20T09:24:46.457Z,5.40
2019-05-20T09:26:52.995Z,4.70
2019-05-20T09:28:59.542Z,5.55
2019-05-20T09:31:06.544Z,5.03
2019-05-20T09:33:13.182Z,4.92
2019-05-20T11:10:14.805Z,5.70
2019-05-20T11:12:21.314Z,5.70
2019-05-20T11:14:27.832Z,6.83
2019-05-20T11:16:34.246Z,5.60
2019-05-20T11:18:40.780Z,6.10
2019-05-20T11:20:47.286Z,5.92
2019-05-20T11:22:53.789Z,6.03
2019-05-20T11:25:00.234Z,6.50
2019-05-20T11:27:06.625Z,5.62
2019-05-20T11:29:13.143Z,6.10
2019-05-20T11:31:19.604Z,6.10
2019-05-20T11:33:25.996Z,6.60
2019-05-20T11:35:32.706Z,5.97
2019-05-20T11:37:39.166Z,6.20
2019-05-20T11:39:45.551Z,6.10
2019-05-20T11:41:54.189Z,6.30
2019-05-20T11:44:00.064Z,6.00
2019-05-20T11:46:06.620Z,7.40
2019-05-20T11:48:13.137Z,7.78
2019-05-20T11:50:20.128Z,5.80
2019-05-20T11:52:26.587Z,5.80
2019-05-20T11:54:33.059Z,5.47
2019-05-20T11:56:39.543Z,6.08
2019-05-20T11:58:45.963Z,5.75
2019-05-20T12:00:52.700Z,6.15
2019-05-20T12:02:59.376Z,6.05
2019-05-20T12:05:08.879Z,6.42
2019-05-20T12:07:15.275Z,6.35
2019-05-20T12:09:21.821Z,6.53
2019-05-20T12:11:28.403Z,6.03
2019-05-20T12:13:34.858Z,5.70
2019-05-20T12:15:41.265Z,6.05
2019-05-20T12:17:47.741Z,6.75
2019-05-20T12:19:54.141Z,7.25
2019-05-20T12:22:00.546Z,5.58
2019-05-20T12:24:07.112Z,6.70
2019-05-20T12:26:13.509Z,7.50
2019-05-20T12:28:20.015Z,6.22
2019-05-20T12:30:26.521Z,6.95
2019-05-20T12:32:32.980Z,6.53
2019-05-20T12:34:39.407Z,5.90
2019-05-20T12:36:45.866Z,7.33
2019-05-20T12:38:52.411Z,6.45
2019-05-20T12:40:58.812Z,6.87
2019-05-20T12:43:05.280Z,5.95
2019-05-20T12:45:12.573Z,6.47
2019-05-20T12:47:19.035Z,6.30
2019-05-20T12:49:26.747Z,5.90
2019-05-20T12:51:33.382Z,6.65
2019-05-20T12:53:39.917Z,6.90
2019-05-20T12:55:46.399Z,5.53
2019-05-20T12:57:53.888Z,5.58
2019-05-20T13:00:00.275Z,4.58
2019-05-20T13:02:08.340Z,4.00
2019-05-20T13:04:14.763Z,3.80
2019-05-20T13:06:21.150Z,3.72
2019-05-20T13:08:29.270Z,3.80
2019-05-20T13:10:35.732Z,3.45
2019-05-20T13:12:42.348Z,3.40
2019-05-20T13:14:48.759Z,3.30
2019-05-20T13:16:55.157Z,3.33
2019-05-20T13:19:01.637Z,3.52
2019-05-20T13:21:08.096Z,4.20
2019-05-20T13:23:15.854Z,2.92
2019-05-20T13:25:22.625Z,3.73
2019-05-20T13:27:29.193Z,3.75
2019-05-20T13:29:35.584Z,3.42
2019-05-20T13:31:41.975Z,3.80
2019-05-20T13:33:48.382Z,3.85
2019-05-20T13:35:54.759Z,4.20
2019-05-20T13:38:01.158Z,3.65
2019-05-20T13:40:09.323Z,3.92
2019-05-20T13:42:15.842Z,4.22
2019-05-20T13:44:22.250Z,3.83
2019-05-20T13:46:28.646Z,4.10
2019-05-20T13:48:35.053Z,4.22
2019-05-20T13:50:41.524Z,4.83
2019-05-20T13:52:48.004Z,3.98
2019-05-20T13:54:54.400Z,3.98
2019-05-20T13:57:00.933Z,4.65
2019-05-20T13:59:07.405Z,4.35
2019-05-20T14:01:13.816Z,4.87
2019-05-20T14:03:20.330Z,5.15
2019-05-20T14:05:26.800Z,4.97
2019-05-20T14:07:33.204Z,4.95
2019-05-20T14:09:39.669Z,5.53
2019-05-20T14:11:46.227Z,4.90
2019-05-20T14:13:52.697Z,5.53
2019-05-20T14:15:59.268Z,5.35
2019-05-20T14:18:05.748Z,5.20
2019-05-20T14:20:12.722Z,5.37
2019-05-20T14:22:19.123Z,5.47
2019-05-20T14:24:25.521Z,6.10
2019-05-20T14:26:31.949Z,6.17
2019-05-20T14:28:38.528Z,6.47
2019-05-20T14:30:45.620Z,5.22
2019-05-20T14:32:52.046Z,4.80
2019-05-20T14:34:58.652Z,5.62
2019-05-20T14:37:05.112Z,4.17
2019-05-20T14:39:11.499Z,5.75
2019-05-20T14:41:21.522Z,5.15
2019-05-20T14:43:27.167Z,5.17
2019-05-20T14:45:33.760Z,5.47
2019-05-20T14:47:40.197Z,5.78
2019-05-20T14:49:46.579Z,5.30
2019-05-20T14:51:52.969Z,6.08
2019-05-20T14:53:59.394Z,5.08
2019-05-20T14:56:05.869Z,5.67
2019-05-20T14:58:12.415Z,5.53
2019-05-20T15:00:21.429Z,5.90
2019-05-20T15:02:30.864Z,7.00
2019-05-20T15:04:36.078Z,6.17
2019-05-20T15:06:45.362Z,5.80
2019-05-20T15:08:51.857Z,6.78
2019-05-20T15:10:58.352Z,5.60
2019-05-20T15:13:05.441Z,6.42
2019-05-20T15:15:12.750Z,5.65
2019-05-20T15:17:19.229Z,5.92
2019-05-20T15:19:25.657Z,5.50
2019-05-20T15:21:32.242Z,6.50
2019-05-20T15:23:38.795Z,5.78
2019-05-20T15:25:46.344Z,6.25
2019-05-20T15:27:52.986Z,6.60
2019-05-20T15:29:59.580Z,7.35
2019-05-20T15:32:06.058Z,7.30
2019-05-20T15:34:12.427Z,7.05
2019-05-20T15:36:18.883Z,6.47
2019-05-20T15:38:25.359Z,6.47
2019-05-20T15:40:31.874Z,6.50
2019-05-20T15:42:38.308Z,6.65
2019-05-20T15:44:44.757Z,7.47
2019-05-20T15:46:51.236Z,7.62
2019-05-20T15:49:02.983Z,7.53
2019-05-20T15:51:09.462Z,8.18
2019-05-20T15:53:15.921Z,6.70
2019-05-20T15:55:22.478Z,7.75
2019-05-20T15:57:28.919Z,7.60
2019-05-20T15:59:45.486Z,7.67
2019-05-20T16:01:44.574Z,7.83
2019-05-20T16:03:51.711Z,7.20
2019-05-20T16:05:59.961Z,8.23
2019-05-20T16:08:06.589Z,7.33
2019-05-20T16:10:13.142Z,6.90
2019-05-20T16:12:19.683Z,6.47
2019-05-20T16:14:26.171Z,6.15
2019-05-20T16:16:32.571Z,7.40
2019-05-20T16:18:39.085Z,7.00
2019-05-20T16:20:45.504Z,6.28
2019-05-20T16:22:51.973Z,6.17
2019-05-20T16:24:58.373Z,7.40
2019-05-20T16:27:05.021Z,6.10
2019-05-20T16:29:11.546Z,6.05
2019-05-20T16:31:18.104Z,5.25
2019-05-20T16:33:24.559Z,4.92
2019-05-20T16:35:31.015Z,5.92
2019-05-20T16:37:37.661Z,5.75
2019-05-20T16:39:44.187Z,6.15
2019-05-20T16:41:50.588Z,6.00
2019-05-20T16:43:57.480Z,6.65
2019-05-20T16:46:04.902Z,6.80
2019-05-20T16:48:11.396Z,6.97
2019-05-20T16:50:19.522Z,7.62
2019-05-20T16:52:26.247Z,6.60
2019-05-20T16:54:32.707Z,6.37
2019-05-20T16:56:40.546Z,6.50
2019-05-20T16:58:47.164Z,6.03
2019-05-20T17:00:53.697Z,5.65
2019-05-20T17:03:00.157Z,4.80
2019-05-20T17:05:08.130Z,5.67
2019-05-20T17:07:16.423Z,5.10
2019-05-20T17:09:22.937Z,4.90
2019-05-20T17:11:29.423Z,5.47
2019-05-20T17:13:36.470Z,5.20
2019-05-20T17:15:42.915Z,5.37
2019-05-20T17:17:49.386Z,4.53
2019-05-20T17:19:55.874Z,5.15
2019-05-20T17:22:06.166Z,6.05
2019-05-20T17:24:14.249Z,5.05
2019-05-20T17:26:21.773Z,5.60
2019-05-20T17:28:28.353Z,7.83
2019-05-20T17:30:44.867Z,6.20
2019-05-20T17:32:43.223Z,7.03
2019-05-20T17:34:49.673Z,6.25
2019-05-20T17:36:56.774Z,7.92
2019-05-20T17:39:05.059Z,7.97
2019-05-20T17:41:11.747Z,7.15
2019-05-20T17:43:20.334Z,8.23
2019-05-20T17:45:27.065Z,8.33
2019-05-20T17:47:33.730Z,7.62
2019-05-20T17:49:40.288Z,7.60
2019-05-20T17:51:46.743Z,7.80
2019-05-20T17:53:53.227Z,8.20
2019-05-20T17:55:59.822Z,6.70
2019-05-20T17:58:07.425Z,8.80
2019-05-20T18:00:19.036Z,8.38
2019-05-20T18:02:25.602Z,7.90
2019-05-20T18:04:31.998Z,8.20
2019-05-20T18:06:38.386Z,7.50
2019-05-20T18:08:46.465Z,7.50
2019-05-20T18:10:52.841Z,7.70
2019-05-20T18:12:59.238Z,7.20
2019-05-20T18:15:07.026Z,8.18
2019-05-20T18:17:13.497Z,7.75
2019-05-20T18:19:19.916Z,8.20
2019-05-20T18:21:26.313Z,7.62
2019-05-20T18:23:32.744Z,7.50
2019-05-20T18:25:39.852Z,8.70
2019-05-20T18:27:46.310Z,8.40
2019-05-20T18:29:52.888Z,8.68
2019-05-20T18:31:59.417Z,9.70
2019-05-20T18:34:06.010Z,8.98
2019-05-20T18:36:12.452Z,9.45
2019-05-20T18:38:19.831Z,9.35
2019-05-20T18:40:26.523Z,8.38
2019-05-20T18:42:33.004Z,9.50
2019-05-20T18:44:39.416Z,8.43
2019-05-20T18:46:45.847Z,8.38
2019-05-20T18:48:52.221Z,8.68
2019-05-20T18:50:58.615Z,8.55
2019-05-20T18:53:05.087Z,8.70
2019-05-20T18:55:11.719Z,8.70
2019-05-20T18:57:18.105Z,8.58
2019-05-20T18:59:24.591Z,8.68
2019-05-20T19:01:31.136Z,9.10
2019-05-20T19:03:37.600Z,7.80
2019-05-20T19:05:44.219Z,7.87
2019-05-20T19:07:50.633Z,7.87
2019-05-20T19:09:57.182Z,8.60
2019-05-20T19:12:03.661Z,8.53
2019-05-20T19:14:10.298Z,7.75
2019-05-20T19:16:16.839Z,7.15
2019-05-20T19:18:23.314Z,8.10
2019-05-20T19:20:29.805Z,7.60
2019-05-20T19:22:36.260Z,6.80
2019-05-20T19:24:42.660Z,7.15
2019-05-20T19:26:49.197Z,7.53
2019-05-20T19:28:55.590Z,7.65
2019-05-20T19:31:02.130Z,6.97
2019-05-20T19:33:09.091Z,6.70
2019-05-20T19:35:16.095Z,7.15
2019-05-20T19:37:22.876Z,6.97
2019-05-20T19:39:29.352Z,7.45
2019-05-20T19:41:35.845Z,8.75
2019-05-20T19:43:43.604Z,7.90
2019-05-20T19:45:50.089Z,7.90
2019-05-20T19:47:56.640Z,7.37
2019-05-20T19:50:03.219Z,6.95
2019-05-20T19:52:10.073Z,7.53
2019-05-20T19:54:17.641Z,7.75
2019-05-20T19:56:24.111Z,7.62
2019-05-20T19:58:30.587Z,7.50
2019-05-20T20:00:38.123Z,7.55
2019-05-20T20:02:45.118Z,8.05
2019-05-20T20:04:51.690Z,7.80
2019-05-20T20:06:58.196Z,7.67
2019-05-20T20:09:06.099Z,8.08
2019-05-20T20:11:12.571Z,7.78
2019-05-20T20:13:19.058Z,8.10
2019-05-20T20:15:25.460Z,7.67
2019-05-20T20:17:31.882Z,8.13
2019-05-20T20:19:38.400Z,7.85
2019-05-20T20:21:44.883Z,7.62
2019-05-20T20:23:51.409Z,7.55
2019-05-20T20:25:57.912Z,8.25
2019-05-20T20:28:06.087Z,8.03
2019-05-20T20:30:12.922Z,8.05
2019-05-20T20:32:35.171Z,8.80
2019-05-20T20:34:30.474Z,10.10
2019-05-20T20:36:35.744Z,8.80
2019-05-20T20:38:43.447Z,8.85
2019-05-20T20:40:49.981Z,8.55
2019-05-20T20:42:56.432Z,8.13
2019-05-20T20:45:03.067Z,8.70
2019-05-20T20:47:10.804Z,9.13
2019-05-20T20:49:17.303Z,8.88
2019-05-20T20:51:24.840Z,8.98
2019-05-20T20:53:31.273Z,7.62
2019-05-20T20:55:37.766Z,8.18
2019-05-20T20:57:47.821Z,9.03
2019-05-20T20:59:54.212Z,8.95
2019-05-20T21:02:00.734Z,8.55
2019-05-20T21:04:07.199Z,8.53
2019-05-20T21:06:16.743Z,8.35
2019-05-20T21:08:23.294Z,8.63
2019-05-20T21:10:29.708Z,8.53
2019-05-20T21:12:36.569Z,8.48
2019-05-20T21:14:43.030Z,8.90
2019-05-20T21:16:49.534Z,9.08
2019-05-20T21:18:55.937Z,8.75
2019-05-20T21:21:02.563Z,7.67
2019-05-20T21:23:08.988Z,9.03
2019-05-20T21:25:15.605Z,8.03
2019-05-20T21:27:22.112Z,7.80
2019-05-20T21:29:32.341Z,7.58
2019-05-20T21:31:36.609Z,7.93
2019-05-20T21:33:43.061Z,8.25
2019-05-20T21:35:49.449Z,7.80
2019-05-20T21:37:55.859Z,7.92
2019-05-20T21:40:02.335Z,7.67
2019-05-20T21:42:09.158Z,7.10
2019-05-20T21:44:16.991Z,6.87
2019-05-20T21:46:23.389Z,7.12
2019-05-20T21:48:29.786Z,7.92
2019-05-20T21:50:36.191Z,7.17
2019-05-20T21:52:42.601Z,8.10
2019-05-20T21:54:48.999Z,7.45
2019-05-20T21:56:55.435Z,7.08
2019-05-20T21:59:01.910Z,6.87
2019-05-20T22:01:08.372Z,6.50
2019-05-20T22:03:23.901Z,7.12
2019-05-20T22:05:24.464Z,7.17
2019-05-20T22:07:31.292Z,6.45
2019-05-20T22:09:38.015Z,6.70
2019-05-20T22:11:44.476Z,6.67
2019-05-20T22:13:52.744Z,6.50
2019-05-20T22:15:59.143Z,7.05
2019-05-20T22:18:05.609Z,6.53
2019-05-20T22:20:12.221Z,5.87
2019-05-20T22:22:26.145Z,6.25
2019-05-20T22:24:32.539Z,5.47
2019-05-20T22:26:38.920Z,5.90
2019-05-20T22:28:45.424Z,5.28
2019-05-20T22:30:51.823Z,6.05
2019-05-20T22:32:58.213Z,5.30
2019-05-20T22:35:07.240Z,5.08
2019-05-20T22:39:19.107Z,5.03
2019-05-20T22:41:25.572Z,5.08
2019-05-20T22:43:32.079Z,5.55
2019-05-20T22:45:38.476Z,5.20
2019-05-20T22:47:44.865Z,4.90
2019-05-20T22:49:51.321Z,4.67
2019-05-20T22:51:57.716Z,4.95
2019-05-20T22:54:04.210Z,4.60
2019-05-20T22:56:10.713Z,4.70
2019-05-20T22:58:17.211Z,4.53
2019-05-20T23:00:23.739Z,4.65
2019-05-20T23:02:30.144Z,4.22
2019-05-20T23:04:36.952Z,4.62
2019-05-20T23:06:43.339Z,4.25
2019-05-20T23:08:49.751Z,4.22
2019-05-20T23:10:56.140Z,4.00
2019-05-20T23:13:02.599Z,3.80
2019-05-20T23:15:10.298Z,3.80
2019-05-20T23:17:17.119Z,4.42
2019-05-20T23:19:23.594Z,4.15
2019-05-20T23:21:29.988Z,4.00
2019-05-20T23:23:36.362Z,4.62
2019-05-20T23:25:44.011Z,3.98
2019-05-20T23:27:53.108Z,4.17
2019-05-20T23:29:59.485Z,4.12
2019-05-20T23:32:05.926Z,3.70
2019-05-20T23:34:13.382Z,4.00
2019-05-20T23:36:20.093Z,3.47
2019-05-20T23:38:26.592Z,3.52
2019-05-20T23:40:33.118Z,4.10
2019-05-20T23:42:39.508Z,3.75
2019-05-20T23:44:45.941Z,3.92
2019-05-20T23:46:52.334Z,3.55
2019-05-20T23:49:00.411Z,3.80
2019-05-20T23:51:06.855Z,3.90
2019-05-20T23:53:13.411Z,3.42
2019-05-20T23:55:19.865Z,3.40
2019-05-20T23:57:26.366Z,3.25
2019-05-20T23:59:32.748Z,4.05
